sensor_id;sensor_type;location;lat;lon;timestamp;P1;durP1;ratioP1;P2;durP2;ratioP2
4961;SDS011;2496;52.468;13.342;2022-11-20T00:00:26;16.27;;;10.40;;
4961;SDS011;2496;52.468;13.342;2022-11-20T00:02:54;17.63;;;10.63;;
4961;SDS011;2496;52.468;13.342;2022-11-20T00:05:22;16.93;;;9.90;;
4961;SDS011;2496;52.468;13.342;2022-11-20T00:07:50;18.87;;;9.60;;
4961;SDS011;2496;52.468;13.342;2022-11-20T00:10:20;18.00;;;9.00;;
4961;SDS011;2496;52.468;13.342;2022-11-20T00:12:49;20.37;;;10.50;;
4961;SDS011;2496;52.468;13.342;2022-11-20T00:15:19;14.83;;;9.37;;
4961;SDS011;2496;52.468;13.342;2022-11-20T00:17:47;20.83;;;11.17;;
4961;SDS011;2496;52.468;13.342;2022-11-20T00:20:15;15.10;;;9.70;;
4961;SDS011;2496;52.468;13.342;2022-11-20T00:22:44;19.50;;;10.10;;
4961;SDS011;2496;52.468;13.342;2022-11-20T00:25:11;16.63;;;9.97;;
4961;SDS011;2496;52.468;13.342;2022-11-20T00:27:38;19.30;;;9.93;;
4961;SDS011;2496;52.468;13.342;2022-11-20T00:30:07;21.07;;;9.60;;
4961;SDS011;2496;52.468;13.342;2022-11-20T00:32:36;16.27;;;9.50;;
4961;SDS011;2496;52.468;13.342;2022-11-20T00:35:05;15.47;;;9.67;;
4961;SDS011;2496;52.468;13.342;2022-11-20T00:37:33;17.63;;;10.43;;
4961;SDS011;2496;52.468;13.342;2022-11-20T00:40:00;15.70;;;10.40;;
4961;SDS011;2496;52.468;13.342;2022-11-20T00:42:29;21.67;;;10.73;;
4961;SDS011;2496;52.468;13.342;2022-11-20T00:44:59;18.30;;;10.80;;
4961;SDS011;2496;52.468;13.342;2022-11-20T00:47:27;14.13;;;9.13;;
4961;SDS011;2496;52.468;13.342;2022-11-20T00:49:58;16.00;;;10.10;;
4961;SDS011;2496;52.468;13.342;2022-11-20T00:52:26;18.53;;;10.70;;
4961;SDS011;2496;52.468;13.342;2022-11-20T00:54:56;14.60;;;8.80;;
4961;SDS011;2496;52.468;13.342;2022-11-20T00:57:23;18.83;;;10.40;;
4961;SDS011;2496;52.468;13.342;2022-11-20T00:59:50;15.07;;;9.80;;
4961;SDS011;2496;52.468;13.342;2022-11-20T01:02:17;15.83;;;9.10;;
4961;SDS011;2496;52.468;13.342;2022-11-20T01:04:44;18.47;;;9.53;;
4961;SDS011;2496;52.468;13.342;2022-11-20T01:07:13;13.20;;;9.00;;
4961;SDS011;2496;52.468;13.342;2022-11-20T01:09:40;14.73;;;8.43;;
4961;SDS011;2496;52.468;13.342;2022-11-20T01:12:07;17.67;;;10.50;;
4961;SDS011;2496;52.468;13.342;2022-11-20T01:14:34;15.87;;;9.37;;
4961;SDS011;2496;52.468;13.342;2022-11-20T01:17:01;20.03;;;11.17;;
4961;SDS011;2496;52.468;13.342;2022-11-20T01:19:28;21.27;;;10.20;;
4961;SDS011;2496;52.468;13.342;2022-11-20T01:21:55;15.73;;;9.77;;
4961;SDS011;2496;52.468;13.342;2022-11-20T01:24:24;16.87;;;9.20;;
4961;SDS011;2496;52.468;13.342;2022-11-20T01:26:51;20.03;;;10.30;;
4961;SDS011;2496;52.468;13.342;2022-11-20T01:29:19;13.73;;;8.60;;
4961;SDS011;2496;52.468;13.342;2022-11-20T01:31:47;14.87;;;9.10;;
4961;SDS011;2496;52.468;13.342;2022-11-20T01:34:15;18.57;;;10.40;;
4961;SDS011;2496;52.468;13.342;2022-11-20T01:36:43;18.50;;;10.37;;
4961;SDS011;2496;52.468;13.342;2022-11-20T01:39:11;18.43;;;10.43;;
4961;SDS011;2496;52.468;13.342;2022-11-20T01:41:42;15.30;;;9.83;;
4961;SDS011;2496;52.468;13.342;2022-11-20T01:44:49;14.30;;;9.20;;
4961;SDS011;2496;52.468;13.342;2022-11-20T01:47:24;18.47;;;10.70;;
4961;SDS011;2496;52.468;13.342;2022-11-20T01:49:56;13.90;;;8.00;;
4961;SDS011;2496;52.468;13.342;2022-11-20T01:52:30;17.30;;;10.03;;
4961;SDS011;2496;52.468;13.342;2022-11-20T01:55:03;14.50;;;9.60;;
4961;SDS011;2496;52.468;13.342;2022-11-20T01:57:37;18.47;;;9.97;;
4961;SDS011;2496;52.468;13.342;2022-11-20T02:00:06;20.37;;;10.77;;
4961;SDS011;2496;52.468;13.342;2022-11-20T02:02:36;17.57;;;11.17;;
4961;SDS011;2496;52.468;13.342;2022-11-20T02:05:09;22.17;;;10.40;;
4961;SDS011;2496;52.468;13.342;2022-11-20T02:07:43;16.80;;;9.73;;
4961;SDS011;2496;52.468;13.342;2022-11-20T02:10:11;17.20;;;9.80;;
4961;SDS011;2496;52.468;13.342;2022-11-20T02:12:39;17.10;;;10.60;;
4961;SDS011;2496;52.468;13.342;2022-11-20T02:15:24;21.90;;;10.63;;
4961;SDS011;2496;52.468;13.342;2022-11-20T02:17:51;16.70;;;10.17;;
4961;SDS011;2496;52.468;13.342;2022-11-20T02:20:18;17.73;;;11.23;;
4961;SDS011;2496;52.468;13.342;2022-11-20T02:22:46;17.30;;;9.53;;
4961;SDS011;2496;52.468;13.342;2022-11-20T02:25:18;15.83;;;9.83;;
4961;SDS011;2496;52.468;13.342;2022-11-20T02:27:46;17.10;;;10.40;;
4961;SDS011;2496;52.468;13.342;2022-11-20T02:30:13;19.03;;;10.00;;
4961;SDS011;2496;52.468;13.342;2022-11-20T02:32:40;17.60;;;9.47;;
4961;SDS011;2496;52.468;13.342;2022-11-20T02:35:08;15.37;;;9.80;;
4961;SDS011;2496;52.468;13.342;2022-11-20T02:37:36;15.70;;;10.27;;
4961;SDS011;2496;52.468;13.342;2022-11-20T02:40:06;15.20;;;10.10;;
4961;SDS011;2496;52.468;13.342;2022-11-20T02:42:35;17.93;;;10.50;;
4961;SDS011;2496;52.468;13.342;2022-11-20T02:45:03;15.33;;;8.83;;
4961;SDS011;2496;52.468;13.342;2022-11-20T02:47:31;16.40;;;10.80;;
4961;SDS011;2496;52.468;13.342;2022-11-20T02:49:59;18.30;;;8.93;;
4961;SDS011;2496;52.468;13.342;2022-11-20T02:52:26;18.37;;;10.90;;
4961;SDS011;2496;52.468;13.342;2022-11-20T02:54:53;21.83;;;10.00;;
4961;SDS011;2496;52.468;13.342;2022-11-20T02:57:20;16.73;;;10.33;;
4961;SDS011;2496;52.468;13.342;2022-11-20T02:59:48;24.07;;;11.30;;
4961;SDS011;2496;52.468;13.342;2022-11-20T03:02:15;21.40;;;12.10;;
4961;SDS011;2496;52.468;13.342;2022-11-20T03:04:42;16.47;;;10.33;;
4961;SDS011;2496;52.468;13.342;2022-11-20T03:07:09;17.37;;;9.93;;
4961;SDS011;2496;52.468;13.342;2022-11-20T03:09:36;17.33;;;10.47;;
4961;SDS011;2496;52.468;13.342;2022-11-20T03:12:04;17.37;;;10.57;;
4961;SDS011;2496;52.468;13.342;2022-11-20T03:14:31;16.90;;;10.37;;
4961;SDS011;2496;52.468;13.342;2022-11-20T03:17:00;17.90;;;9.77;;
4961;SDS011;2496;52.468;13.342;2022-11-20T03:19:26;19.13;;;10.90;;
4961;SDS011;2496;52.468;13.342;2022-11-20T03:21:54;18.83;;;11.00;;
4961;SDS011;2496;52.468;13.342;2022-11-20T03:24:21;20.20;;;10.93;;
4961;SDS011;2496;52.468;13.342;2022-11-20T03:26:48;18.63;;;10.13;;
4961;SDS011;2496;52.468;13.342;2022-11-20T03:29:14;21.10;;;11.20;;
4961;SDS011;2496;52.468;13.342;2022-11-20T03:31:41;16.53;;;11.00;;
4961;SDS011;2496;52.468;13.342;2022-11-20T03:34:10;18.30;;;12.03;;
4961;SDS011;2496;52.468;13.342;2022-11-20T03:36:38;15.47;;;9.53;;
4961;SDS011;2496;52.468;13.342;2022-11-20T03:39:05;14.77;;;10.07;;
4961;SDS011;2496;52.468;13.342;2022-11-20T03:41:35;17.07;;;9.67;;
4961;SDS011;2496;52.468;13.342;2022-11-20T03:44:04;16.23;;;10.77;;
4961;SDS011;2496;52.468;13.342;2022-11-20T03:46:33;15.83;;;10.20;;
4961;SDS011;2496;52.468;13.342;2022-11-20T03:49:00;19.40;;;10.63;;
4961;SDS011;2496;52.468;13.342;2022-11-20T03:51:29;19.60;;;10.87;;
4961;SDS011;2496;52.468;13.342;2022-11-20T03:53:57;20.17;;;11.13;;
4961;SDS011;2496;52.468;13.342;2022-11-20T03:56:26;18.70;;;10.70;;
4961;SDS011;2496;52.468;13.342;2022-11-20T03:58:55;19.57;;;10.17;;
4961;SDS011;2496;52.468;13.342;2022-11-20T04:01:23;20.60;;;10.70;;
4961;SDS011;2496;52.468;13.342;2022-11-20T04:03:52;20.07;;;11.67;;
4961;SDS011;2496;52.468;13.342;2022-11-20T04:06:21;18.07;;;10.13;;
4961;SDS011;2496;52.468;13.342;2022-11-20T04:08:50;18.87;;;10.73;;
4961;SDS011;2496;52.468;13.342;2022-11-20T04:11:20;19.17;;;11.90;;
4961;SDS011;2496;52.468;13.342;2022-11-20T04:13:49;17.77;;;9.83;;
4961;SDS011;2496;52.468;13.342;2022-11-20T04:16:17;24.77;;;11.60;;
4961;SDS011;2496;52.468;13.342;2022-11-20T04:18:46;18.00;;;10.77;;
4961;SDS011;2496;52.468;13.342;2022-11-20T04:21:17;19.00;;;11.07;;
4961;SDS011;2496;52.468;13.342;2022-11-20T04:23:44;18.17;;;11.20;;
4961;SDS011;2496;52.468;13.342;2022-11-20T04:26:12;17.20;;;10.57;;
4961;SDS011;2496;52.468;13.342;2022-11-20T04:28:39;18.67;;;11.07;;
4961;SDS011;2496;52.468;13.342;2022-11-20T04:31:07;17.20;;;11.07;;
4961;SDS011;2496;52.468;13.342;2022-11-20T04:33:35;18.73;;;11.13;;
4961;SDS011;2496;52.468;13.342;2022-11-20T04:36:04;19.63;;;10.90;;
4961;SDS011;2496;52.468;13.342;2022-11-20T04:38:32;19.80;;;10.17;;
4961;SDS011;2496;52.468;13.342;2022-11-20T04:40:59;19.47;;;11.83;;
4961;SDS011;2496;52.468;13.342;2022-11-20T04:43:29;24.73;;;11.60;;
4961;SDS011;2496;52.468;13.342;2022-11-20T04:45:58;17.87;;;9.93;;
4961;SDS011;2496;52.468;13.342;2022-11-20T04:48:25;17.37;;;10.50;;
4961;SDS011;2496;52.468;13.342;2022-11-20T04:50:53;16.10;;;11.10;;
4961;SDS011;2496;52.468;13.342;2022-11-20T04:53:20;22.60;;;12.97;;
4961;SDS011;2496;52.468;13.342;2022-11-20T04:55:48;19.57;;;10.70;;
4961;SDS011;2496;52.468;13.342;2022-11-20T04:58:15;19.10;;;11.77;;
4961;SDS011;2496;52.468;13.342;2022-11-20T05:00:44;18.80;;;10.73;;
4961;SDS011;2496;52.468;13.342;2022-11-20T05:03:11;19.17;;;11.23;;
4961;SDS011;2496;52.468;13.342;2022-11-20T05:05:38;22.33;;;12.00;;
4961;SDS011;2496;52.468;13.342;2022-11-20T05:08:05;18.87;;;11.70;;
4961;SDS011;2496;52.468;13.342;2022-11-20T05:10:32;19.90;;;11.07;;
4961;SDS011;2496;52.468;13.342;2022-11-20T05:12:59;17.90;;;11.40;;
4961;SDS011;2496;52.468;13.342;2022-11-20T05:15:25;15.47;;;10.60;;
4961;SDS011;2496;52.468;13.342;2022-11-20T05:17:54;21.37;;;11.63;;
4961;SDS011;2496;52.468;13.342;2022-11-20T05:20:21;22.40;;;11.20;;
4961;SDS011;2496;52.468;13.342;2022-11-20T05:22:48;21.20;;;11.90;;
4961;SDS011;2496;52.468;13.342;2022-11-20T05:25:15;19.80;;;11.90;;
4961;SDS011;2496;52.468;13.342;2022-11-20T05:27:42;23.33;;;11.57;;
4961;SDS011;2496;52.468;13.342;2022-11-20T05:30:10;17.00;;;10.00;;
4961;SDS011;2496;52.468;13.342;2022-11-20T05:32:38;24.57;;;11.80;;
4961;SDS011;2496;52.468;13.342;2022-11-20T05:35:06;22.87;;;12.93;;
4961;SDS011;2496;52.468;13.342;2022-11-20T05:37:33;19.70;;;11.47;;
4961;SDS011;2496;52.468;13.342;2022-11-20T05:40:00;19.60;;;11.57;;
4961;SDS011;2496;52.468;13.342;2022-11-20T05:42:29;25.70;;;12.90;;
4961;SDS011;2496;52.468;13.342;2022-11-20T05:44:56;16.97;;;10.90;;
4961;SDS011;2496;52.468;13.342;2022-11-20T05:47:24;22.97;;;12.47;;
4961;SDS011;2496;52.468;13.342;2022-11-20T05:49:51;17.50;;;11.37;;
4961;SDS011;2496;52.468;13.342;2022-11-20T05:52:19;19.70;;;11.90;;
4961;SDS011;2496;52.468;13.342;2022-11-20T05:54:46;17.70;;;13.07;;
4961;SDS011;2496;52.468;13.342;2022-11-20T05:57:13;20.53;;;12.47;;
4961;SDS011;2496;52.468;13.342;2022-11-20T05:59:41;21.30;;;12.40;;
4961;SDS011;2496;52.468;13.342;2022-11-20T06:02:08;21.77;;;12.40;;
4961;SDS011;2496;52.468;13.342;2022-11-20T06:04:35;19.27;;;10.60;;
4961;SDS011;2496;52.468;13.342;2022-11-20T06:07:02;20.80;;;11.77;;
4961;SDS011;2496;52.468;13.342;2022-11-20T06:09:32;27.30;;;14.33;;
4961;SDS011;2496;52.468;13.342;2022-11-20T06:11:59;22.10;;;13.13;;
4961;SDS011;2496;52.468;13.342;2022-11-20T06:14:26;17.70;;;11.13;;
4961;SDS011;2496;52.468;13.342;2022-11-20T06:16:53;22.40;;;12.67;;
4961;SDS011;2496;52.468;13.342;2022-11-20T06:19:20;19.83;;;11.40;;
4961;SDS011;2496;52.468;13.342;2022-11-20T06:21:47;19.73;;;11.20;;
4961;SDS011;2496;52.468;13.342;2022-11-20T06:24:14;19.57;;;11.53;;
4961;SDS011;2496;52.468;13.342;2022-11-20T06:26:43;18.20;;;11.00;;
4961;SDS011;2496;52.468;13.342;2022-11-20T06:29:10;19.33;;;11.50;;
4961;SDS011;2496;52.468;13.342;2022-11-20T06:31:37;24.87;;;13.33;;
4961;SDS011;2496;52.468;13.342;2022-11-20T06:34:04;18.97;;;11.57;;
4961;SDS011;2496;52.468;13.342;2022-11-20T06:36:32;24.47;;;11.87;;
4961;SDS011;2496;52.468;13.342;2022-11-20T06:38:59;26.60;;;11.87;;
4961;SDS011;2496;52.468;13.342;2022-11-20T06:41:26;21.00;;;11.67;;
4961;SDS011;2496;52.468;13.342;2022-11-20T06:43:55;18.87;;;11.87;;
4961;SDS011;2496;52.468;13.342;2022-11-20T06:46:22;19.60;;;12.50;;
4961;SDS011;2496;52.468;13.342;2022-11-20T06:48:49;21.10;;;10.80;;
4961;SDS011;2496;52.468;13.342;2022-11-20T06:51:19;25.00;;;12.93;;
4961;SDS011;2496;52.468;13.342;2022-11-20T06:53:46;20.70;;;12.03;;
4961;SDS011;2496;52.468;13.342;2022-11-20T06:56:13;19.50;;;11.53;;
4961;SDS011;2496;52.468;13.342;2022-11-20T06:58:40;19.20;;;12.00;;
4961;SDS011;2496;52.468;13.342;2022-11-20T07:01:09;19.73;;;11.90;;
4961;SDS011;2496;52.468;13.342;2022-11-20T07:03:37;21.20;;;12.00;;
4961;SDS011;2496;52.468;13.342;2022-11-20T07:06:05;19.33;;;10.90;;
4961;SDS011;2496;52.468;13.342;2022-11-20T07:08:33;24.90;;;12.37;;
4961;SDS011;2496;52.468;13.342;2022-11-20T07:11:01;23.73;;;12.70;;
4961;SDS011;2496;52.468;13.342;2022-11-20T07:13:29;20.40;;;12.43;;
4961;SDS011;2496;52.468;13.342;2022-11-20T07:15:58;20.03;;;11.83;;
4961;SDS011;2496;52.468;13.342;2022-11-20T07:18:27;21.60;;;12.13;;
4961;SDS011;2496;52.468;13.342;2022-11-20T07:20:54;19.67;;;11.90;;
4961;SDS011;2496;52.468;13.342;2022-11-20T07:23:21;20.27;;;12.60;;
4961;SDS011;2496;52.468;13.342;2022-11-20T07:25:48;19.90;;;11.70;;
4961;SDS011;2496;52.468;13.342;2022-11-20T07:28:15;23.17;;;12.83;;
4961;SDS011;2496;52.468;13.342;2022-11-20T07:30:42;24.67;;;12.67;;
4961;SDS011;2496;52.468;13.342;2022-11-20T07:33:15;21.87;;;11.60;;
4961;SDS011;2496;52.468;13.342;2022-11-20T07:35:43;22.07;;;11.67;;
4961;SDS011;2496;52.468;13.342;2022-11-20T07:38:11;22.93;;;12.33;;
4961;SDS011;2496;52.468;13.342;2022-11-20T07:40:37;22.87;;;12.10;;
4961;SDS011;2496;52.468;13.342;2022-11-20T07:43:04;21.37;;;11.47;;
4961;SDS011;2496;52.468;13.342;2022-11-20T07:45:31;19.80;;;12.13;;
4961;SDS011;2496;52.468;13.342;2022-11-20T07:47:58;22.63;;;11.90;;
4961;SDS011;2496;52.468;13.342;2022-11-20T07:50:25;20.80;;;12.23;;
4961;SDS011;2496;52.468;13.342;2022-11-20T07:52:58;26.63;;;14.00;;
4961;SDS011;2496;52.468;13.342;2022-11-20T07:55:27;19.00;;;11.40;;
4961;SDS011;2496;52.468;13.342;2022-11-20T07:57:54;16.07;;;11.60;;
4961;SDS011;2496;52.468;13.342;2022-11-20T08:00:22;20.33;;;10.90;;
4961;SDS011;2496;52.468;13.342;2022-11-20T08:02:49;22.10;;;12.80;;
4961;SDS011;2496;52.468;13.342;2022-11-20T08:05:16;23.80;;;12.50;;
4961;SDS011;2496;52.468;13.342;2022-11-20T08:07:43;22.73;;;13.23;;
4961;SDS011;2496;52.468;13.342;2022-11-20T08:10:13;23.87;;;11.53;;
4961;SDS011;2496;52.468;13.342;2022-11-20T08:12:44;21.17;;;12.10;;
4961;SDS011;2496;52.468;13.342;2022-11-20T08:15:29;21.47;;;12.80;;
4961;SDS011;2496;52.468;13.342;2022-11-20T08:18:00;19.20;;;12.10;;
4961;SDS011;2496;52.468;13.342;2022-11-20T08:20:28;23.27;;;13.87;;
4961;SDS011;2496;52.468;13.342;2022-11-20T08:22:59;24.57;;;11.77;;
4961;SDS011;2496;52.468;13.342;2022-11-20T08:25:28;22.40;;;12.83;;
4961;SDS011;2496;52.468;13.342;2022-11-20T08:27:57;24.20;;;12.47;;
4961;SDS011;2496;52.468;13.342;2022-11-20T08:30:24;27.00;;;13.10;;
4961;SDS011;2496;52.468;13.342;2022-11-20T08:32:52;21.87;;;12.63;;
4961;SDS011;2496;52.468;13.342;2022-11-20T08:35:19;23.40;;;13.30;;
4961;SDS011;2496;52.468;13.342;2022-11-20T08:37:47;17.43;;;10.90;;
4961;SDS011;2496;52.468;13.342;2022-11-20T08:40:14;21.17;;;12.10;;
4961;SDS011;2496;52.468;13.342;2022-11-20T08:42:49;26.80;;;12.10;;
4961;SDS011;2496;52.468;13.342;2022-11-20T08:45:17;24.13;;;13.33;;
4961;SDS011;2496;52.468;13.342;2022-11-20T08:47:45;27.60;;;14.67;;
4961;SDS011;2496;52.468;13.342;2022-11-20T08:50:13;22.37;;;13.03;;
4961;SDS011;2496;52.468;13.342;2022-11-20T08:52:41;22.70;;;11.73;;
4961;SDS011;2496;52.468;13.342;2022-11-20T08:55:09;29.33;;;14.07;;
4961;SDS011;2496;52.468;13.342;2022-11-20T08:57:37;17.97;;;11.97;;
4961;SDS011;2496;52.468;13.342;2022-11-20T09:00:07;21.77;;;13.00;;
4961;SDS011;2496;52.468;13.342;2022-11-20T09:02:36;20.00;;;12.10;;
4961;SDS011;2496;52.468;13.342;2022-11-20T09:05:03;25.03;;;13.07;;
4961;SDS011;2496;52.468;13.342;2022-11-20T09:07:31;23.37;;;11.87;;
4961;SDS011;2496;52.468;13.342;2022-11-20T09:09:58;20.40;;;11.10;;
4961;SDS011;2496;52.468;13.342;2022-11-20T09:12:25;24.47;;;14.30;;
4961;SDS011;2496;52.468;13.342;2022-11-20T09:14:52;18.70;;;11.73;;
4961;SDS011;2496;52.468;13.342;2022-11-20T09:17:20;22.87;;;12.70;;
4961;SDS011;2496;52.468;13.342;2022-11-20T09:19:47;19.37;;;11.87;;
4961;SDS011;2496;52.468;13.342;2022-11-20T09:22:14;21.90;;;13.20;;
4961;SDS011;2496;52.468;13.342;2022-11-20T09:24:41;22.37;;;13.33;;
4961;SDS011;2496;52.468;13.342;2022-11-20T09:27:08;22.10;;;12.60;;
4961;SDS011;2496;52.468;13.342;2022-11-20T09:29:35;22.07;;;11.57;;
4961;SDS011;2496;52.468;13.342;2022-11-20T09:32:02;21.43;;;11.63;;
4961;SDS011;2496;52.468;13.342;2022-11-20T09:34:31;20.87;;;12.90;;
4961;SDS011;2496;52.468;13.342;2022-11-20T09:36:58;20.70;;;12.07;;
4961;SDS011;2496;52.468;13.342;2022-11-20T09:39:25;21.87;;;13.70;;
4961;SDS011;2496;52.468;13.342;2022-11-20T09:41:58;22.53;;;13.20;;
4961;SDS011;2496;52.468;13.342;2022-11-20T09:44:48;22.40;;;11.03;;
4961;SDS011;2496;52.468;13.342;2022-11-20T09:47:24;24.87;;;13.07;;
4961;SDS011;2496;52.468;13.342;2022-11-20T09:50:05;20.00;;;12.10;;
4961;SDS011;2496;52.468;13.342;2022-11-20T09:52:46;14.93;;;10.20;;
4961;SDS011;2496;52.468;13.342;2022-11-20T09:55:23;23.30;;;12.33;;
4961;SDS011;2496;52.468;13.342;2022-11-20T09:57:51;24.80;;;12.70;;
4961;SDS011;2496;52.468;13.342;2022-11-20T10:00:19;26.83;;;13.97;;
4961;SDS011;2496;52.468;13.342;2022-11-20T10:02:48;20.60;;;12.63;;
4961;SDS011;2496;52.468;13.342;2022-11-20T10:05:23;20.03;;;12.40;;
4961;SDS011;2496;52.468;13.342;2022-11-20T10:07:55;22.50;;;12.60;;
4961;SDS011;2496;52.468;13.342;2022-11-20T10:10:40;26.63;;;12.80;;
4961;SDS011;2496;52.468;13.342;2022-11-20T10:13:14;23.70;;;12.70;;
4961;SDS011;2496;52.468;13.342;2022-11-20T10:15:51;23.73;;;14.37;;
4961;SDS011;2496;52.468;13.342;2022-11-20T10:18:30;20.50;;;11.30;;
4961;SDS011;2496;52.468;13.342;2022-11-20T10:21:11;20.00;;;13.07;;
4961;SDS011;2496;52.468;13.342;2022-11-20T10:23:51;20.13;;;11.80;;
4961;SDS011;2496;52.468;13.342;2022-11-20T10:26:26;22.33;;;13.60;;
4961;SDS011;2496;52.468;13.342;2022-11-20T10:29:09;21.67;;;11.77;;
4961;SDS011;2496;52.468;13.342;2022-11-20T10:31:39;22.07;;;13.53;;
4961;SDS011;2496;52.468;13.342;2022-11-20T10:34:12;23.20;;;12.10;;
4961;SDS011;2496;52.468;13.342;2022-11-20T10:36:49;20.70;;;12.03;;
4961;SDS011;2496;52.468;13.342;2022-11-20T10:39:22;22.37;;;12.60;;
4961;SDS011;2496;52.468;13.342;2022-11-20T10:41:55;26.00;;;14.87;;
4961;SDS011;2496;52.468;13.342;2022-11-20T10:44:26;27.47;;;12.73;;
4961;SDS011;2496;52.468;13.342;2022-11-20T10:47:12;19.70;;;12.90;;
4961;SDS011;2496;52.468;13.342;2022-11-20T10:49:40;25.90;;;14.30;;
4961;SDS011;2496;52.468;13.342;2022-11-20T10:52:12;24.33;;;12.83;;
4961;SDS011;2496;52.468;13.342;2022-11-20T10:54:49;20.07;;;12.60;;
4961;SDS011;2496;52.468;13.342;2022-11-20T10:57:27;24.27;;;12.43;;
4961;SDS011;2496;52.468;13.342;2022-11-20T11:00:11;17.23;;;11.30;;
4961;SDS011;2496;52.468;13.342;2022-11-20T11:02:43;23.00;;;13.20;;
4961;SDS011;2496;52.468;13.342;2022-11-20T11:05:16;22.27;;;12.37;;
4961;SDS011;2496;52.468;13.342;2022-11-20T11:07:53;20.87;;;12.10;;
4961;SDS011;2496;52.468;13.342;2022-11-20T11:10:22;19.20;;;11.90;;
4961;SDS011;2496;52.468;13.342;2022-11-20T11:12:53;18.47;;;11.87;;
4961;SDS011;2496;52.468;13.342;2022-11-20T11:15:25;25.27;;;11.90;;
4961;SDS011;2496;52.468;13.342;2022-11-20T11:17:54;21.70;;;13.33;;
4961;SDS011;2496;52.468;13.342;2022-11-20T11:20:22;19.97;;;11.10;;
4961;SDS011;2496;52.468;13.342;2022-11-20T11:22:52;18.40;;;10.97;;
4961;SDS011;2496;52.468;13.342;2022-11-20T11:25:28;17.80;;;10.30;;
4961;SDS011;2496;52.468;13.342;2022-11-20T11:28:00;18.63;;;11.20;;
4961;SDS011;2496;52.468;13.342;2022-11-20T11:30:29;19.57;;;11.40;;
4961;SDS011;2496;52.468;13.342;2022-11-20T11:33:08;17.93;;;11.00;;
4961;SDS011;2496;52.468;13.342;2022-11-20T11:35:39;29.03;;;16.37;;
4961;SDS011;2496;52.468;13.342;2022-11-20T11:38:14;21.17;;;10.97;;
4961;SDS011;2496;52.468;13.342;2022-11-20T11:40:44;17.20;;;11.10;;
4961;SDS011;2496;52.468;13.342;2022-11-20T11:43:17;20.20;;;11.77;;
4961;SDS011;2496;52.468;13.342;2022-11-20T11:46:19;21.10;;;11.60;;
4961;SDS011;2496;52.468;13.342;2022-11-20T11:48:57;22.13;;;10.80;;
4961;SDS011;2496;52.468;13.342;2022-11-20T11:51:26;18.27;;;11.00;;
4961;SDS011;2496;52.468;13.342;2022-11-20T11:54:00;16.87;;;10.83;;
4961;SDS011;2496;52.468;13.342;2022-11-20T11:56:34;16.97;;;11.73;;
4961;SDS011;2496;52.468;13.342;2022-11-20T11:59:04;24.87;;;11.13;;
4961;SDS011;2496;52.468;13.342;2022-11-20T12:01:40;21.43;;;10.60;;
4961;SDS011;2496;52.468;13.342;2022-11-20T12:04:14;17.93;;;10.73;;
4961;SDS011;2496;52.468;13.342;2022-11-20T12:06:47;21.17;;;11.30;;
4961;SDS011;2496;52.468;13.342;2022-11-20T12:09:20;17.93;;;11.33;;
4961;SDS011;2496;52.468;13.342;2022-11-20T12:11:54;16.93;;;11.73;;
4961;SDS011;2496;52.468;13.342;2022-11-20T12:14:30;22.93;;;10.13;;
4961;SDS011;2496;52.468;13.342;2022-11-20T12:17:01;16.17;;;10.67;;
4961;SDS011;2496;52.468;13.342;2022-11-20T12:19:29;18.30;;;10.40;;
4961;SDS011;2496;52.468;13.342;2022-11-20T12:21:59;14.30;;;9.97;;
4961;SDS011;2496;52.468;13.342;2022-11-20T12:24:44;21.23;;;10.30;;
4961;SDS011;2496;52.468;13.342;2022-11-20T12:27:27;13.60;;;8.60;;
4961;SDS011;2496;52.468;13.342;2022-11-20T12:30:14;12.47;;;8.70;;
4961;SDS011;2496;52.468;13.342;2022-11-20T12:32:55;13.83;;;7.77;;
4961;SDS011;2496;52.468;13.342;2022-11-20T12:35:44;12.73;;;7.23;;
4961;SDS011;2496;52.468;13.342;2022-11-20T12:38:45;13.07;;;6.37;;
4961;SDS011;2496;52.468;13.342;2022-11-20T12:41:29;10.23;;;6.53;;
4961;SDS011;2496;52.468;13.342;2022-11-20T12:44:31;9.27;;;6.77;;
4961;SDS011;2496;52.468;13.342;2022-11-20T12:47:28;13.40;;;7.17;;
4961;SDS011;2496;52.468;13.342;2022-11-20T12:50:04;11.40;;;7.57;;
4961;SDS011;2496;52.468;13.342;2022-11-20T12:52:38;11.07;;;5.87;;
4961;SDS011;2496;52.468;13.342;2022-11-20T12:55:17;13.90;;;7.00;;
4961;SDS011;2496;52.468;13.342;2022-11-20T12:57:54;13.67;;;6.93;;
4961;SDS011;2496;52.468;13.342;2022-11-20T13:00:25;11.43;;;6.97;;
4961;SDS011;2496;52.468;13.342;2022-11-20T13:03:06;10.83;;;6.93;;
4961;SDS011;2496;52.468;13.342;2022-11-20T13:05:46;11.40;;;6.57;;
4961;SDS011;2496;52.468;13.342;2022-11-20T13:08:22;10.07;;;6.77;;
4961;SDS011;2496;52.468;13.342;2022-11-20T13:10:51;11.67;;;6.43;;
4961;SDS011;2496;52.468;13.342;2022-11-20T13:13:25;12.97;;;7.97;;
4961;SDS011;2496;52.468;13.342;2022-11-20T13:16:00;11.70;;;7.27;;
4961;SDS011;2496;52.468;13.342;2022-11-20T13:18:33;12.17;;;7.50;;
4961;SDS011;2496;52.468;13.342;2022-11-20T13:21:12;12.47;;;8.10;;
4961;SDS011;2496;52.468;13.342;2022-11-20T13:23:43;18.83;;;7.33;;
4961;SDS011;2496;52.468;13.342;2022-11-20T13:29:01;11.53;;;6.83;;
4961;SDS011;2496;52.468;13.342;2022-11-20T13:31:35;12.20;;;7.20;;
4961;SDS011;2496;52.468;13.342;2022-11-20T13:34:07;10.33;;;7.33;;
4961;SDS011;2496;52.468;13.342;2022-11-20T13:36:48;15.00;;;7.13;;
4961;SDS011;2496;52.468;13.342;2022-11-20T13:39:23;12.70;;;6.50;;
4961;SDS011;2496;52.468;13.342;2022-11-20T13:41:53;13.73;;;6.53;;
4961;SDS011;2496;52.468;13.342;2022-11-20T13:44:27;9.87;;;7.10;;
4961;SDS011;2496;52.468;13.342;2022-11-20T13:46:59;11.37;;;7.17;;
4961;SDS011;2496;52.468;13.342;2022-11-20T13:49:27;17.70;;;9.40;;
4961;SDS011;2496;52.468;13.342;2022-11-20T13:52:01;14.27;;;7.47;;
4961;SDS011;2496;52.468;13.342;2022-11-20T13:54:52;16.80;;;9.77;;
4961;SDS011;2496;52.468;13.342;2022-11-20T13:57:34;11.00;;;7.50;;
4961;SDS011;2496;52.468;13.342;2022-11-20T14:00:15;15.03;;;8.87;;
4961;SDS011;2496;52.468;13.342;2022-11-20T14:02:43;13.87;;;8.00;;
4961;SDS011;2496;52.468;13.342;2022-11-20T14:05:18;10.40;;;6.80;;
4961;SDS011;2496;52.468;13.342;2022-11-20T14:07:47;12.30;;;7.83;;
4961;SDS011;2496;52.468;13.342;2022-11-20T14:10:22;8.80;;;7.13;;
4961;SDS011;2496;52.468;13.342;2022-11-20T14:12:51;15.60;;;7.97;;
4961;SDS011;2496;52.468;13.342;2022-11-20T14:15:27;11.17;;;7.03;;
4961;SDS011;2496;52.468;13.342;2022-11-20T14:17:55;12.47;;;7.60;;
4961;SDS011;2496;52.468;13.342;2022-11-20T14:20:23;8.80;;;5.83;;
4961;SDS011;2496;52.468;13.342;2022-11-20T14:22:53;11.97;;;8.00;;
4961;SDS011;2496;52.468;13.342;2022-11-20T14:25:21;10.80;;;6.10;;
4961;SDS011;2496;52.468;13.342;2022-11-20T14:27:52;10.90;;;6.23;;
4961;SDS011;2496;52.468;13.342;2022-11-20T14:30:21;12.73;;;7.97;;
4961;SDS011;2496;52.468;13.342;2022-11-20T14:32:51;12.17;;;8.63;;
4961;SDS011;2496;52.468;13.342;2022-11-20T14:35:21;13.90;;;9.70;;
4961;SDS011;2496;52.468;13.342;2022-11-20T14:37:51;20.87;;;14.07;;
4961;SDS011;2496;52.468;13.342;2022-11-20T14:40:23;13.33;;;8.80;;
4961;SDS011;2496;52.468;13.342;2022-11-20T14:42:55;13.07;;;8.43;;
4961;SDS011;2496;52.468;13.342;2022-11-20T14:45:22;16.73;;;9.30;;
4961;SDS011;2496;52.468;13.342;2022-11-20T14:47:51;27.20;;;11.60;;
4961;SDS011;2496;52.468;13.342;2022-11-20T14:50:21;24.70;;;13.60;;
4961;SDS011;2496;52.468;13.342;2022-11-20T14:52:50;12.93;;;7.63;;
4961;SDS011;2496;52.468;13.342;2022-11-20T14:55:30;18.47;;;11.00;;
4961;SDS011;2496;52.468;13.342;2022-11-20T14:57:59;13.77;;;8.77;;
4961;SDS011;2496;52.468;13.342;2022-11-20T15:00:29;12.70;;;8.30;;